Great Barford, United Kingdom
Current Conditions -  °F | °C
As of 5:20 PM on Monday 20 Oct 2014 (Local Time) from EGTC Reporting Station
Few Clouds Few Clouds  
Wind Chill: 13°   Ceiling: Unl
Heat Index: 13°   Visibility: 6mi
Dew Point: 12°   Wind: 14mph
Humidity: 94%   Direction: 230°SW
Pressure: 29.91"   Gusts: NA
Location:  52.16°N, 0.35°W
Report Text: EGTC 201620Z 23012KT 9999 FEW017 13/12 Q1013
Loading
Personal Weather Stations






























Interactive Weather Map
Tropical Storm Tracking
New forecast layout! Learn more

10-Day Weather Forecast

Advertisements
Track Severe Weather on mobile